METAR AND TAF INFORMATION
METAR FOR KUUV
ADDS - METARS form results

(1043 UTC 30 January 2023)
Data provider http://aviationweather.gov/metar/data/
 
METAR text: KUUV 301035Z AUTO 00000KT 5SM BR OVC007 M07/M07 A3035 RMK AO2
Conditions at: KUUV (SULLIVAN , MO, US) observed 1035 UTC 30 January 2023
Temperature: -7.0°C (19°F)
Dewpoint: -7.0°C (19°F) [RH = 100%]
Pressure (altimeter): 30.35 inches Hg (1027.9 mb)
Winds: calm
Visibility: 5 miles ( 8 km)
Ceiling: 700 feet AGL
Clouds: overcast cloud deck at 700 feet AGL
Weather: BR  (mist)

METAR text: KUUV 301015Z AUTO 00000KT 5SM -SN OVC007 M07/M07 A3033 RMK AO2
Conditions at: KUUV (SULLIVAN , MO, US) observed 1015 UTC 30 January 2023
Temperature: -7.0°C (19°F)
Dewpoint: -7.0°C (19°F) [RH = 100%]
Pressure (altimeter): 30.33 inches Hg (1027.2 mb)
Winds: calm
Visibility: 5 miles ( 8 km)
Ceiling: 700 feet AGL
Clouds: overcast cloud deck at 700 feet AGL
Weather: -SN  (light snow)

METAR text: KUUV 300955Z AUTO 00000KT 7SM -SN BKN007 OVC011 M06/M07 A3033 RMK AO2
Conditions at: KUUV (SULLIVAN , MO, US) observed 0955 UTC 30 January 2023
Temperature: -6.0°C (21°F)
Dewpoint: -7.0°C (19°F) [RH = 93%]
Pressure (altimeter): 30.33 inches Hg (1027.2 mb)
Winds: calm
Visibility: 7 miles (11 km)
Ceiling: 700 feet AGL
Clouds: broken clouds at 700 feet AGL
overcast cloud deck at 1100 feet AGL
Weather: -SN  (light snow)

 AIRPORT MAP

 RUNWAY INFORMATION
Runway 06 Runway length 4500 ft Runway width 75 ft
Runway elevation 933 ft Runway displaced threshold 0 ft Runway heading 60
Runway 24 Runway length 4500 ft Runway width 75 ft
Runway elevation 924 ft Runway displaced threshold 0 ft Runway heading 240

 AIRPORT FREQUENCIES
Type AWOS Name AWOS 3 Frequency 119.375 MHZ
Type CNTR Name KANSAS CIT Frequency 133.4 MHZ
Type UNIC Name CTAF/UNICO Frequency 122.7 MHZ

 AIRPORT NEAR NAVIGATION AIDS

-